sensor_id;sensor_type;location;lat;lon;timestamp;P1;durP1;ratioP1;P2;durP2;ratioP2
51957;SDS011;41120;51.820;20.804;2022-07-19T00:01:52;5.77;;;3.53;;
51957;SDS011;41120;51.820;20.804;2022-07-19T00:04:19;7.57;;;3.40;;
51957;SDS011;41120;51.820;20.804;2022-07-19T00:06:53;6.83;;;3.93;;
51957;SDS011;41120;51.820;20.804;2022-07-19T00:09:25;7.47;;;3.60;;
51957;SDS011;41120;51.820;20.804;2022-07-19T00:17:41;4.57;;;3.60;;
51957;SDS011;41120;51.820;20.804;2022-07-19T00:20:09;5.60;;;3.63;;
51957;SDS011;41120;51.820;20.804;2022-07-19T00:22:39;6.37;;;3.70;;
51957;SDS011;41120;51.820;20.804;2022-07-19T00:25:05;5.87;;;3.57;;
51957;SDS011;41120;51.820;20.804;2022-07-19T00:27:31;6.60;;;3.70;;
51957;SDS011;41120;51.820;20.804;2022-07-19T00:29:59;7.97;;;3.90;;
51957;SDS011;41120;51.820;20.804;2022-07-19T00:35:01;9.50;;;4.50;;
51957;SDS011;41120;51.820;20.804;2022-07-19T00:37:34;6.15;;;3.92;;
51957;SDS011;41120;51.820;20.804;2022-07-19T00:40:08;7.63;;;4.00;;
51957;SDS011;41120;51.820;20.804;2022-07-19T00:42:37;8.53;;;4.27;;
51957;SDS011;41120;51.820;20.804;2022-07-19T00:45:04;6.97;;;3.83;;
51957;SDS011;41120;51.820;20.804;2022-07-19T00:47:32;7.20;;;4.07;;
51957;SDS011;41120;51.820;20.804;2022-07-19T00:49:59;5.73;;;3.80;;
51957;SDS011;41120;51.820;20.804;2022-07-19T00:52:25;7.33;;;4.00;;
51957;SDS011;41120;51.820;20.804;2022-07-19T01:02:59;7.80;;;3.90;;
51957;SDS011;41120;51.820;20.804;2022-07-19T01:10:39;6.40;;;3.63;;
51957;SDS011;41120;51.820;20.804;2022-07-19T01:13:07;5.47;;;3.60;;
51957;SDS011;41120;51.820;20.804;2022-07-19T01:15:41;6.57;;;3.70;;
51957;SDS011;41120;51.820;20.804;2022-07-19T01:18:09;10.57;;;3.70;;
51957;SDS011;41120;51.820;20.804;2022-07-19T01:23:09;6.97;;;4.00;;
51957;SDS011;41120;51.820;20.804;2022-07-19T01:25:40;5.80;;;3.73;;
51957;SDS011;41120;51.820;20.804;2022-07-19T01:28:08;6.13;;;3.90;;
51957;SDS011;41120;51.820;20.804;2022-07-19T01:30:51;6.37;;;3.77;;
51957;SDS011;41120;51.820;20.804;2022-07-19T01:35:55;6.70;;;4.13;;
51957;SDS011;41120;51.820;20.804;2022-07-19T01:38:21;8.73;;;3.93;;
51957;SDS011;41120;51.820;20.804;2022-07-19T01:40:52;5.90;;;4.40;;
51957;SDS011;41120;51.820;20.804;2022-07-19T01:43:18;6.53;;;3.83;;
51957;SDS011;41120;51.820;20.804;2022-07-19T01:45:54;7.43;;;4.17;;
51957;SDS011;41120;51.820;20.804;2022-07-19T01:48:21;6.33;;;4.20;;
51957;SDS011;41120;51.820;20.804;2022-07-19T01:50:49;5.17;;;3.73;;
51957;SDS011;41120;51.820;20.804;2022-07-19T01:53:23;10.17;;;4.13;;
51957;SDS011;41120;51.820;20.804;2022-07-19T01:55:53;6.53;;;3.77;;
51957;SDS011;41120;51.820;20.804;2022-07-19T01:58:20;6.77;;;3.97;;
51957;SDS011;41120;51.820;20.804;2022-07-19T02:03:29;9.27;;;4.10;;
51957;SDS011;41120;51.820;20.804;2022-07-19T02:08:42;11.07;;;4.23;;
51957;SDS011;41120;51.820;20.804;2022-07-19T02:11:08;8.97;;;5.50;;
51957;SDS011;41120;51.820;20.804;2022-07-19T02:13:54;21.07;;;12.30;;
51957;SDS011;41120;51.820;20.804;2022-07-19T02:16:22;27.47;;;17.10;;
51957;SDS011;41120;51.820;20.804;2022-07-19T02:18:55;77.93;;;41.60;;
51957;SDS011;41120;51.820;20.804;2022-07-19T02:21:27;35.77;;;16.77;;
51957;SDS011;41120;51.820;20.804;2022-07-19T02:26:27;38.87;;;18.27;;
51957;SDS011;41120;51.820;20.804;2022-07-19T02:31:47;71.22;;;30.20;;
51957;SDS011;41120;51.820;20.804;2022-07-19T02:34:29;105.10;;;49.10;;
51957;SDS011;41120;51.820;20.804;2022-07-19T02:42:05;44.47;;;24.00;;
51957;SDS011;41120;51.820;20.804;2022-07-19T02:47:03;18.37;;;12.10;;
51957;SDS011;41120;51.820;20.804;2022-07-19T02:49:31;9.75;;;6.00;;
51957;SDS011;41120;51.820;20.804;2022-07-19T02:51:57;11.37;;;5.87;;
51957;SDS011;41120;51.820;20.804;2022-07-19T02:54:30;10.13;;;6.10;;
51957;SDS011;41120;51.820;20.804;2022-07-19T02:57:03;13.63;;;7.23;;
51957;SDS011;41120;51.820;20.804;2022-07-19T02:59:31;8.97;;;5.77;;
51957;SDS011;41120;51.820;20.804;2022-07-19T03:02:00;7.57;;;5.60;;
51957;SDS011;41120;51.820;20.804;2022-07-19T03:04:32;13.83;;;7.03;;
51957;SDS011;41120;51.820;20.804;2022-07-19T03:06:58;15.00;;;8.15;;
51957;SDS011;41120;51.820;20.804;2022-07-19T03:09:33;13.10;;;7.80;;
51957;SDS011;41120;51.820;20.804;2022-07-19T03:12:11;8.40;;;6.20;;
51957;SDS011;41120;51.820;20.804;2022-07-19T03:14:43;13.33;;;5.93;;
51957;SDS011;41120;51.820;20.804;2022-07-19T03:17:10;10.73;;;7.03;;
51957;SDS011;41120;51.820;20.804;2022-07-19T03:22:07;9.93;;;6.10;;
51957;SDS011;41120;51.820;20.804;2022-07-19T03:24:34;9.30;;;5.20;;
51957;SDS011;41120;51.820;20.804;2022-07-19T03:27:01;10.47;;;6.70;;
51957;SDS011;41120;51.820;20.804;2022-07-19T03:29:42;11.13;;;6.40;;
51957;SDS011;41120;51.820;20.804;2022-07-19T03:34:39;9.40;;;4.80;;
51957;SDS011;41120;51.820;20.804;2022-07-19T03:39:36;9.30;;;6.40;;
51957;SDS011;41120;51.820;20.804;2022-07-19T03:42:02;12.37;;;6.83;;
51957;SDS011;41120;51.820;20.804;2022-07-19T03:50:28;10.33;;;6.07;;
51957;SDS011;41120;51.820;20.804;2022-07-19T03:52:55;10.93;;;5.80;;
51957;SDS011;41120;51.820;20.804;2022-07-19T03:55:21;8.17;;;5.87;;
51957;SDS011;41120;51.820;20.804;2022-07-19T03:57:49;9.83;;;5.73;;
51957;SDS011;41120;51.820;20.804;2022-07-19T04:00:17;11.30;;;5.70;;
51957;SDS011;41120;51.820;20.804;2022-07-19T04:02:49;10.63;;;5.33;;
51957;SDS011;41120;51.820;20.804;2022-07-19T04:05:15;10.65;;;6.03;;
51957;SDS011;41120;51.820;20.804;2022-07-19T04:10:19;12.00;;;5.80;;
51957;SDS011;41120;51.820;20.804;2022-07-19T04:15:24;9.93;;;5.57;;
51957;SDS011;41120;51.820;20.804;2022-07-19T04:17:50;11.90;;;5.70;;
51957;SDS011;41120;51.820;20.804;2022-07-19T04:20:16;11.50;;;5.63;;
51957;SDS011;41120;51.820;20.804;2022-07-19T04:22:48;8.03;;;4.80;;
51957;SDS011;41120;51.820;20.804;2022-07-19T04:27:44;8.83;;;5.77;;
51957;SDS011;41120;51.820;20.804;2022-07-19T04:30:16;8.77;;;5.17;;
51957;SDS011;41120;51.820;20.804;2022-07-19T04:35:20;7.63;;;5.60;;
51957;SDS011;41120;51.820;20.804;2022-07-19T04:37:48;11.03;;;5.50;;
51957;SDS011;41120;51.820;20.804;2022-07-19T04:40:13;10.77;;;5.30;;
51957;SDS011;41120;51.820;20.804;2022-07-19T04:42:42;14.37;;;5.33;;
51957;SDS011;41120;51.820;20.804;2022-07-19T04:45:08;9.13;;;5.40;;
51957;SDS011;41120;51.820;20.804;2022-07-19T04:47:36;8.00;;;5.00;;
51957;SDS011;41120;51.820;20.804;2022-07-19T04:52:53;7.87;;;4.63;;
51957;SDS011;41120;51.820;20.804;2022-07-19T04:58:11;8.50;;;4.97;;
51957;SDS011;41120;51.820;20.804;2022-07-19T05:00:45;9.90;;;5.10;;
51957;SDS011;41120;51.820;20.804;2022-07-19T05:03:13;10.33;;;4.90;;
51957;SDS011;41120;51.820;20.804;2022-07-19T05:05:45;7.63;;;4.97;;
51957;SDS011;41120;51.820;20.804;2022-07-19T05:08:11;9.85;;;5.00;;
51957;SDS011;41120;51.820;20.804;2022-07-19T05:10:44;10.57;;;4.93;;
51957;SDS011;41120;51.820;20.804;2022-07-19T05:13:17;10.23;;;5.30;;
51957;SDS011;41120;51.820;20.804;2022-07-19T05:15:44;12.23;;;5.00;;
51957;SDS011;41120;51.820;20.804;2022-07-19T05:20:48;8.77;;;5.23;;
51957;SDS011;41120;51.820;20.804;2022-07-19T05:23:14;7.57;;;5.03;;
51957;SDS011;41120;51.820;20.804;2022-07-19T05:25:42;9.00;;;5.47;;
51957;SDS011;41120;51.820;20.804;2022-07-19T05:28:08;10.00;;;5.17;;
51957;SDS011;41120;51.820;20.804;2022-07-19T05:30:34;7.97;;;5.10;;
51957;SDS011;41120;51.820;20.804;2022-07-19T05:33:15;8.87;;;5.13;;
51957;SDS011;41120;51.820;20.804;2022-07-19T05:38:18;11.20;;;5.10;;
51957;SDS011;41120;51.820;20.804;2022-07-19T05:46:39;8.93;;;4.83;;
51957;SDS011;41120;51.820;20.804;2022-07-19T05:49:10;11.80;;;5.50;;
51957;SDS011;41120;51.820;20.804;2022-07-19T05:51:38;10.77;;;4.67;;
51957;SDS011;41120;51.820;20.804;2022-07-19T05:54:10;8.67;;;4.90;;
51957;SDS011;41120;51.820;20.804;2022-07-19T05:56:39;6.63;;;4.67;;
51957;SDS011;41120;51.820;20.804;2022-07-19T05:59:06;9.30;;;5.30;;
51957;SDS011;41120;51.820;20.804;2022-07-19T06:01:32;6.53;;;4.73;;
51957;SDS011;41120;51.820;20.804;2022-07-19T06:03:59;8.43;;;4.53;;
51957;SDS011;41120;51.820;20.804;2022-07-19T06:09:02;8.53;;;5.07;;
51957;SDS011;41120;51.820;20.804;2022-07-19T06:11:29;8.07;;;5.00;;
51957;SDS011;41120;51.820;20.804;2022-07-19T06:14:02;8.20;;;4.60;;
51957;SDS011;41120;51.820;20.804;2022-07-19T06:16:32;8.20;;;4.90;;
51957;SDS011;41120;51.820;20.804;2022-07-19T06:18:58;11.27;;;5.47;;
51957;SDS011;41120;51.820;20.804;2022-07-19T06:21:24;7.90;;;4.50;;
51957;SDS011;41120;51.820;20.804;2022-07-19T06:26:30;9.40;;;5.33;;
51957;SDS011;41120;51.820;20.804;2022-07-19T06:28:57;7.60;;;5.00;;
51957;SDS011;41120;51.820;20.804;2022-07-19T06:34:30;8.77;;;4.87;;
51957;SDS011;41120;51.820;20.804;2022-07-19T06:36:56;9.67;;;5.07;;
51957;SDS011;41120;51.820;20.804;2022-07-19T06:39:34;9.37;;;4.80;;
51957;SDS011;41120;51.820;20.804;2022-07-19T06:42:02;11.87;;;5.03;;
51957;SDS011;41120;51.820;20.804;2022-07-19T06:44:30;10.43;;;5.10;;
51957;SDS011;41120;51.820;20.804;2022-07-19T06:47:02;12.47;;;5.10;;
51957;SDS011;41120;51.820;20.804;2022-07-19T06:49:45;10.30;;;5.00;;
51957;SDS011;41120;51.820;20.804;2022-07-19T06:52:14;7.83;;;4.70;;
51957;SDS011;41120;51.820;20.804;2022-07-19T06:57:15;10.00;;;5.10;;
51957;SDS011;41120;51.820;20.804;2022-07-19T07:02:42;7.27;;;4.70;;
51957;SDS011;41120;51.820;20.804;2022-07-19T07:05:11;8.57;;;5.07;;
51957;SDS011;41120;51.820;20.804;2022-07-19T07:07:38;9.47;;;5.17;;
51957;SDS011;41120;51.820;20.804;2022-07-19T07:10:14;8.40;;;5.00;;
51957;SDS011;41120;51.820;20.804;2022-07-19T07:12:40;8.80;;;4.67;;
51957;SDS011;41120;51.820;20.804;2022-07-19T07:15:07;9.97;;;4.93;;
51957;SDS011;41120;51.820;20.804;2022-07-19T07:17:39;10.70;;;4.73;;
51957;SDS011;41120;51.820;20.804;2022-07-19T07:22:38;7.50;;;4.67;;
51957;SDS011;41120;51.820;20.804;2022-07-19T07:25:16;10.40;;;4.93;;
51957;SDS011;41120;51.820;20.804;2022-07-19T07:27:45;8.43;;;4.53;;
51957;SDS011;41120;51.820;20.804;2022-07-19T07:30:11;10.97;;;4.90;;
51957;SDS011;41120;51.820;20.804;2022-07-19T07:35:44;8.40;;;4.03;;
51957;SDS011;41120;51.820;20.804;2022-07-19T07:38:10;10.90;;;4.37;;
51957;SDS011;41120;51.820;20.804;2022-07-19T07:40:39;6.57;;;4.30;;
51957;SDS011;41120;51.820;20.804;2022-07-19T07:43:05;8.03;;;4.37;;
51957;SDS011;41120;51.820;20.804;2022-07-19T07:45:42;7.60;;;4.43;;
51957;SDS011;41120;51.820;20.804;2022-07-19T07:48:08;6.43;;;3.97;;
51957;SDS011;41120;51.820;20.804;2022-07-19T07:50:35;11.63;;;4.40;;
51957;SDS011;41120;51.820;20.804;2022-07-19T07:53:02;7.83;;;4.13;;
51957;SDS011;41120;51.820;20.804;2022-07-19T07:55:36;6.50;;;4.33;;
51957;SDS011;41120;51.820;20.804;2022-07-19T07:58:07;6.20;;;3.77;;
51957;SDS011;41120;51.820;20.804;2022-07-19T08:00:41;5.60;;;3.80;;
51957;SDS011;41120;51.820;20.804;2022-07-19T08:03:18;10.33;;;4.23;;
51957;SDS011;41120;51.820;20.804;2022-07-19T08:05:46;9.37;;;4.17;;
51957;SDS011;41120;51.820;20.804;2022-07-19T08:08:17;9.63;;;4.20;;
51957;SDS011;41120;51.820;20.804;2022-07-19T08:10:49;7.97;;;4.70;;
51957;SDS011;41120;51.820;20.804;2022-07-19T08:13:18;6.85;;;4.70;;
51957;SDS011;41120;51.820;20.804;2022-07-19T08:15:46;9.00;;;4.40;;
51957;SDS011;41120;51.820;20.804;2022-07-19T08:18:15;10.20;;;4.63;;
51957;SDS011;41120;51.820;20.804;2022-07-19T08:23:26;9.00;;;4.87;;
51957;SDS011;41120;51.820;20.804;2022-07-19T08:28:21;8.97;;;4.17;;
51957;SDS011;41120;51.820;20.804;2022-07-19T08:30:54;6.13;;;3.80;;
51957;SDS011;41120;51.820;20.804;2022-07-19T08:35:51;9.80;;;3.58;;
51957;SDS011;41120;51.820;20.804;2022-07-19T08:38:17;7.80;;;3.90;;
51957;SDS011;41120;51.820;20.804;2022-07-19T08:46:11;5.32;;;3.20;;
51957;SDS011;41120;51.820;20.804;2022-07-19T08:48:44;4.78;;;3.38;;
51957;SDS011;41120;51.820;20.804;2022-07-19T08:57:14;5.60;;;3.40;;
51957;SDS011;41120;51.820;20.804;2022-07-19T09:05:37;8.80;;;3.63;;
51957;SDS011;41120;51.820;20.804;2022-07-19T09:08:08;7.38;;;3.78;;
51957;SDS011;41120;51.820;20.804;2022-07-19T09:10:43;6.97;;;3.85;;
51957;SDS011;41120;51.820;20.804;2022-07-19T09:13:31;5.78;;;3.72;;
51957;SDS011;41120;51.820;20.804;2022-07-19T09:16:00;5.93;;;3.53;;
51957;SDS011;41120;51.820;20.804;2022-07-19T09:18:27;5.60;;;3.70;;
51957;SDS011;41120;51.820;20.804;2022-07-19T09:20:58;6.20;;;3.50;;
51957;SDS011;41120;51.820;20.804;2022-07-19T09:26:08;7.45;;;3.25;;
51957;SDS011;41120;51.820;20.804;2022-07-19T09:28:46;4.18;;;3.17;;
51957;SDS011;41120;51.820;20.804;2022-07-19T09:31:19;7.10;;;3.35;;
51957;SDS011;41120;51.820;20.804;2022-07-19T09:33:45;5.95;;;2.90;;
51957;SDS011;41120;51.820;20.804;2022-07-19T09:36:19;11.00;;;3.00;;
51957;SDS011;41120;51.820;20.804;2022-07-19T09:38:45;4.40;;;3.15;;
51957;SDS011;41120;51.820;20.804;2022-07-19T09:41:19;9.63;;;3.35;;
51957;SDS011;41120;51.820;20.804;2022-07-19T09:44:02;8.18;;;3.35;;
51957;SDS011;41120;51.820;20.804;2022-07-19T09:49:51;5.55;;;3.10;;
51957;SDS011;41120;51.820;20.804;2022-07-19T09:52:30;11.43;;;3.72;;
51957;SDS011;41120;51.820;20.804;2022-07-19T09:55:04;8.68;;;3.22;;
51957;SDS011;41120;51.820;20.804;2022-07-19T09:57:46;4.30;;;3.17;;
51957;SDS011;41120;51.820;20.804;2022-07-19T10:00:20;5.32;;;3.13;;
51957;SDS011;41120;51.820;20.804;2022-07-19T10:03:03;4.38;;;2.92;;
51957;SDS011;41120;51.820;20.804;2022-07-19T10:05:32;7.00;;;3.35;;
51957;SDS011;41120;51.820;20.804;2022-07-19T10:08:01;4.45;;;2.90;;
51957;SDS011;41120;51.820;20.804;2022-07-19T10:10:29;5.88;;;2.90;;
51957;SDS011;41120;51.820;20.804;2022-07-19T10:15:41;7.15;;;3.20;;
51957;SDS011;41120;51.820;20.804;2022-07-19T10:18:16;7.05;;;3.10;;
51957;SDS011;41120;51.820;20.804;2022-07-19T10:20:56;4.38;;;2.90;;
51957;SDS011;41120;51.820;20.804;2022-07-19T10:23:27;11.00;;;3.38;;
51957;SDS011;41120;51.820;20.804;2022-07-19T10:25:54;10.40;;;3.10;;
51957;SDS011;41120;51.820;20.804;2022-07-19T10:28:36;9.02;;;3.55;;
51957;SDS011;41120;51.820;20.804;2022-07-19T10:31:25;7.53;;;3.20;;
51957;SDS011;41120;51.820;20.804;2022-07-19T10:34:00;4.57;;;3.28;;
51957;SDS011;41120;51.820;20.804;2022-07-19T10:36:45;4.50;;;2.72;;
51957;SDS011;41120;51.820;20.804;2022-07-19T10:39:22;8.00;;;3.40;;
51957;SDS011;41120;51.820;20.804;2022-07-19T10:42:11;5.18;;;2.88;;
51957;SDS011;41120;51.820;20.804;2022-07-19T10:50:17;4.57;;;3.20;;
51957;SDS011;41120;51.820;20.804;2022-07-19T10:52:49;5.80;;;3.08;;
51957;SDS011;41120;51.820;20.804;2022-07-19T11:03:39;4.72;;;2.80;;
51957;SDS011;41120;51.820;20.804;2022-07-19T11:06:08;6.47;;;3.25;;
51957;SDS011;41120;51.820;20.804;2022-07-19T11:08:46;5.32;;;2.85;;
51957;SDS011;41120;51.820;20.804;2022-07-19T11:13:58;7.47;;;3.13;;
51957;SDS011;41120;51.820;20.804;2022-07-19T11:16:25;6.38;;;3.30;;
51957;SDS011;41120;51.820;20.804;2022-07-19T11:21:48;4.97;;;3.10;;
51957;SDS011;41120;51.820;20.804;2022-07-19T11:24:20;5.68;;;3.53;;
51957;SDS011;41120;51.820;20.804;2022-07-19T11:26:57;7.95;;;3.65;;
51957;SDS011;41120;51.820;20.804;2022-07-19T11:32:22;5.72;;;3.10;;
51957;SDS011;41120;51.820;20.804;2022-07-19T11:37:47;7.38;;;3.50;;
51957;SDS011;41120;51.820;20.804;2022-07-19T11:40:16;7.60;;;2.97;;
51957;SDS011;41120;51.820;20.804;2022-07-19T11:42:45;5.38;;;3.47;;
51957;SDS011;41120;51.820;20.804;2022-07-19T11:47:52;5.05;;;3.05;;
51957;SDS011;41120;51.820;20.804;2022-07-19T11:50:24;5.72;;;3.45;;
51957;SDS011;41120;51.820;20.804;2022-07-19T11:52:55;3.22;;;2.72;;
51957;SDS011;41120;51.820;20.804;2022-07-19T11:58:00;9.23;;;3.30;;
51957;SDS011;41120;51.820;20.804;2022-07-19T12:03:14;5.85;;;3.10;;
51957;SDS011;41120;51.820;20.804;2022-07-19T12:12:11;7.45;;;3.17;;
51957;SDS011;41120;51.820;20.804;2022-07-19T12:14:24;6.68;;;3.00;;
51957;SDS011;41120;51.820;20.804;2022-07-19T12:17:18;4.75;;;2.88;;
51957;SDS011;41120;51.820;20.804;2022-07-19T12:22:52;4.25;;;2.90;;
51957;SDS011;41120;51.820;20.804;2022-07-19T12:25:34;5.78;;;3.17;;
51957;SDS011;41120;51.820;20.804;2022-07-19T12:28:07;4.13;;;3.00;;
51957;SDS011;41120;51.820;20.804;2022-07-19T12:30:40;6.93;;;3.22;;
51957;SDS011;41120;51.820;20.804;2022-07-19T12:33:13;6.43;;;3.30;;
51957;SDS011;41120;51.820;20.804;2022-07-19T12:35:55;4.10;;;3.13;;
51957;SDS011;41120;51.820;20.804;2022-07-19T12:38:26;4.65;;;3.03;;
51957;SDS011;41120;51.820;20.804;2022-07-19T12:41:11;4.43;;;3.08;;
51957;SDS011;41120;51.820;20.804;2022-07-19T12:43:50;3.75;;;2.90;;
51957;SDS011;41120;51.820;20.804;2022-07-19T12:46:24;8.23;;;4.70;;
51957;SDS011;41120;51.820;20.804;2022-07-19T12:48:51;5.85;;;4.13;;
51957;SDS011;41120;51.820;20.804;2022-07-19T12:51:20;4.22;;;2.40;;
51957;SDS011;41120;51.820;20.804;2022-07-19T12:53:48;4.78;;;2.70;;
51957;SDS011;41120;51.820;20.804;2022-07-19T12:56:14;5.07;;;2.75;;
51957;SDS011;41120;51.820;20.804;2022-07-19T12:58:43;6.22;;;2.63;;
51957;SDS011;41120;51.820;20.804;2022-07-19T13:01:50;4.18;;;2.83;;
51957;SDS011;41120;51.820;20.804;2022-07-19T13:04:17;4.53;;;2.78;;
51957;SDS011;41120;51.820;20.804;2022-07-19T13:06:43;8.57;;;2.78;;
51957;SDS011;41120;51.820;20.804;2022-07-19T13:09:16;6.03;;;3.03;;
51957;SDS011;41120;51.820;20.804;2022-07-19T13:11:46;7.00;;;2.67;;
51957;SDS011;41120;51.820;20.804;2022-07-19T13:14:13;6.25;;;2.70;;
51957;SDS011;41120;51.820;20.804;2022-07-19T13:16:40;9.32;;;2.90;;
51957;SDS011;41120;51.820;20.804;2022-07-19T13:19:20;5.00;;;2.80;;
51957;SDS011;41120;51.820;20.804;2022-07-19T13:21:47;5.85;;;2.90;;
51957;SDS011;41120;51.820;20.804;2022-07-19T13:24:14;4.50;;;2.60;;
51957;SDS011;41120;51.820;20.804;2022-07-19T13:26:42;5.93;;;2.85;;
51957;SDS011;41120;51.820;20.804;2022-07-19T13:29:16;3.92;;;2.80;;
51957;SDS011;41120;51.820;20.804;2022-07-19T13:31:50;5.78;;;2.40;;
51957;SDS011;41120;51.820;20.804;2022-07-19T13:34:23;3.90;;;2.40;;
51957;SDS011;41120;51.820;20.804;2022-07-19T13:36:52;4.55;;;2.70;;
51957;SDS011;41120;51.820;20.804;2022-07-19T13:39:18;6.68;;;3.05;;
51957;SDS011;41120;51.820;20.804;2022-07-19T13:41:44;4.63;;;2.80;;
51957;SDS011;41120;51.820;20.804;2022-07-19T13:44:14;6.10;;;2.97;;
51957;SDS011;41120;51.820;20.804;2022-07-19T13:46:40;6.75;;;3.15;;
51957;SDS011;41120;51.820;20.804;2022-07-19T13:51:43;6.22;;;3.00;;
51957;SDS011;41120;51.820;20.804;2022-07-19T13:54:12;6.70;;;2.85;;
51957;SDS011;41120;51.820;20.804;2022-07-19T13:56:41;6.90;;;3.40;;
51957;SDS011;41120;51.820;20.804;2022-07-19T14:01:38;4.90;;;2.72;;
51957;SDS011;41120;51.820;20.804;2022-07-19T14:04:05;6.57;;;3.17;;
51957;SDS011;41120;51.820;20.804;2022-07-19T14:06:42;4.63;;;2.60;;
51957;SDS011;41120;51.820;20.804;2022-07-19T14:09:16;5.07;;;2.83;;
51957;SDS011;41120;51.820;20.804;2022-07-19T14:14:22;4.75;;;2.85;;
51957;SDS011;41120;51.820;20.804;2022-07-19T14:19:25;5.85;;;2.63;;
51957;SDS011;41120;51.820;20.804;2022-07-19T14:21:53;6.50;;;3.03;;
51957;SDS011;41120;51.820;20.804;2022-07-19T14:24:25;3.03;;;2.70;;
51957;SDS011;41120;51.820;20.804;2022-07-19T14:26:58;4.70;;;3.08;;
51957;SDS011;41120;51.820;20.804;2022-07-19T14:29:24;5.80;;;3.05;;
51957;SDS011;41120;51.820;20.804;2022-07-19T14:31:52;4.38;;;2.92;;
51957;SDS011;41120;51.820;20.804;2022-07-19T14:36:54;3.97;;;2.70;;
51957;SDS011;41120;51.820;20.804;2022-07-19T14:39:20;5.07;;;3.20;;
51957;SDS011;41120;51.820;20.804;2022-07-19T14:44:32;5.95;;;2.45;;
51957;SDS011;41120;51.820;20.804;2022-07-19T14:46:58;4.40;;;2.60;;
51957;SDS011;41120;51.820;20.804;2022-07-19T14:49:26;5.90;;;3.20;;
51957;SDS011;41120;51.820;20.804;2022-07-19T14:51:54;4.50;;;3.30;;
51957;SDS011;41120;51.820;20.804;2022-07-19T14:54:28;6.25;;;3.83;;
51957;SDS011;41120;51.820;20.804;2022-07-19T14:56:57;5.88;;;3.63;;
51957;SDS011;41120;51.820;20.804;2022-07-19T14:59:25;5.72;;;2.97;;
51957;SDS011;41120;51.820;20.804;2022-07-19T15:01:53;7.40;;;3.30;;
51957;SDS011;41120;51.820;20.804;2022-07-19T15:04:20;7.90;;;3.13;;
51957;SDS011;41120;51.820;20.804;2022-07-19T15:06:47;8.88;;;3.30;;
51957;SDS011;41120;51.820;20.804;2022-07-19T15:11:45;4.13;;;3.00;;
51957;SDS011;41120;51.820;20.804;2022-07-19T15:14:11;4.28;;;2.80;;
51957;SDS011;41120;51.820;20.804;2022-07-19T15:16:45;3.55;;;2.78;;
51957;SDS011;41120;51.820;20.804;2022-07-19T15:19:18;7.90;;;3.13;;
51957;SDS011;41120;51.820;20.804;2022-07-19T15:21:47;5.55;;;3.15;;
51957;SDS011;41120;51.820;20.804;2022-07-19T15:29:21;6.45;;;3.53;;
51957;SDS011;41120;51.820;20.804;2022-07-19T15:31:47;6.40;;;3.25;;
51957;SDS011;41120;51.820;20.804;2022-07-19T15:37:10;5.63;;;3.08;;
51957;SDS011;41120;51.820;20.804;2022-07-19T15:39:36;7.13;;;3.38;;
51957;SDS011;41120;51.820;20.804;2022-07-19T15:42:09;6.28;;;3.53;;
51957;SDS011;41120;51.820;20.804;2022-07-19T15:44:46;7.38;;;2.95;;
51957;SDS011;41120;51.820;20.804;2022-07-19T15:47:26;4.40;;;3.42;;
51957;SDS011;41120;51.820;20.804;2022-07-19T15:52:28;4.82;;;3.13;;
51957;SDS011;41120;51.820;20.804;2022-07-19T15:54:56;4.28;;;2.70;;
51957;SDS011;41120;51.820;20.804;2022-07-19T15:57:28;9.20;;;3.40;;
51957;SDS011;41120;51.820;20.804;2022-07-19T16:05:02;4.85;;;2.90;;
51957;SDS011;41120;51.820;20.804;2022-07-19T16:08:34;3.70;;;2.60;;
51957;SDS011;41120;51.820;20.804;2022-07-19T16:13:39;7.03;;;2.97;;
51957;SDS011;41120;51.820;20.804;2022-07-19T16:16:24;4.03;;;2.60;;
51957;SDS011;41120;51.820;20.804;2022-07-19T16:19:04;5.82;;;3.22;;
51957;SDS011;41120;51.820;20.804;2022-07-19T16:24:09;5.53;;;2.80;;
51957;SDS011;41120;51.820;20.804;2022-07-19T16:32:18;3.65;;;3.03;;
51957;SDS011;41120;51.820;20.804;2022-07-19T16:34:45;4.15;;;3.30;;
51957;SDS011;41120;51.820;20.804;2022-07-19T16:37:18;5.22;;;3.75;;
51957;SDS011;41120;51.820;20.804;2022-07-19T16:39:52;6.22;;;3.55;;
51957;SDS011;41120;51.820;20.804;2022-07-19T16:42:30;4.32;;;2.90;;
51957;SDS011;41120;51.820;20.804;2022-07-19T16:45:04;3.53;;;2.80;;
51957;SDS011;41120;51.820;20.804;2022-07-19T16:47:32;5.93;;;3.03;;
51957;SDS011;41120;51.820;20.804;2022-07-19T16:50:00;6.05;;;3.25;;
51957;SDS011;41120;51.820;20.804;2022-07-19T16:52:26;4.57;;;2.70;;
51957;SDS011;41120;51.820;20.804;2022-07-19T16:54:53;5.22;;;3.00;;
51957;SDS011;41120;51.820;20.804;2022-07-19T16:57:21;5.30;;;3.13;;
51957;SDS011;41120;51.820;20.804;2022-07-19T16:59:46;5.63;;;3.35;;
51957;SDS011;41120;51.820;20.804;2022-07-19T17:05:06;5.88;;;3.50;;
51957;SDS011;41120;51.820;20.804;2022-07-19T17:07:33;5.13;;;3.55;;
51957;SDS011;41120;51.820;20.804;2022-07-19T17:10:06;8.43;;;3.53;;
51957;SDS011;41120;51.820;20.804;2022-07-19T17:12:36;6.60;;;3.42;;
51957;SDS011;41120;51.820;20.804;2022-07-19T17:15:13;4.68;;;3.42;;
51957;SDS011;41120;51.820;20.804;2022-07-19T17:25:50;5.50;;;3.53;;
51957;SDS011;41120;51.820;20.804;2022-07-19T17:31:05;5.85;;;3.25;;
51957;SDS011;41120;51.820;20.804;2022-07-19T17:36:08;7.13;;;3.00;;
51957;SDS011;41120;51.820;20.804;2022-07-19T17:38:39;8.03;;;3.73;;
51957;SDS011;41120;51.820;20.804;2022-07-19T17:41:06;6.75;;;3.67;;
51957;SDS011;41120;51.820;20.804;2022-07-19T17:43:32;4.40;;;3.13;;
51957;SDS011;41120;51.820;20.804;2022-07-19T17:46:06;8.10;;;3.60;;
51957;SDS011;41120;51.820;20.804;2022-07-19T17:51:34;5.73;;;3.30;;
51957;SDS011;41120;51.820;20.804;2022-07-19T17:54:03;7.57;;;3.63;;
51957;SDS011;41120;51.820;20.804;2022-07-19T17:56:30;3.77;;;3.17;;
51957;SDS011;41120;51.820;20.804;2022-07-19T17:58:56;5.90;;;3.40;;
51957;SDS011;41120;51.820;20.804;2022-07-19T18:01:28;4.37;;;3.23;;
51957;SDS011;41120;51.820;20.804;2022-07-19T18:03:54;5.40;;;3.33;;
51957;SDS011;41120;51.820;20.804;2022-07-19T18:06:35;4.80;;;3.60;;
51957;SDS011;41120;51.820;20.804;2022-07-19T18:09:12;5.10;;;3.43;;
51957;SDS011;41120;51.820;20.804;2022-07-19T18:19:37;7.80;;;3.80;;
51957;SDS011;41120;51.820;20.804;2022-07-19T18:22:10;4.67;;;3.60;;
51957;SDS011;41120;51.820;20.804;2022-07-19T18:24:36;5.10;;;3.90;;
51957;SDS011;41120;51.820;20.804;2022-07-19T18:27:21;8.03;;;4.23;;
51957;SDS011;41120;51.820;20.804;2022-07-19T18:32:38;7.73;;;3.87;;
51957;SDS011;41120;51.820;20.804;2022-07-19T18:35:10;6.90;;;3.60;;
51957;SDS011;41120;51.820;20.804;2022-07-19T18:37:37;5.07;;;3.93;;
51957;SDS011;41120;51.820;20.804;2022-07-19T18:40:05;6.23;;;4.10;;
51957;SDS011;41120;51.820;20.804;2022-07-19T18:48:10;11.30;;;4.53;;
51957;SDS011;41120;51.820;20.804;2022-07-19T18:59:05;6.43;;;4.17;;
51957;SDS011;41120;51.820;20.804;2022-07-19T19:01:34;8.57;;;4.40;;
51957;SDS011;41120;51.820;20.804;2022-07-19T19:04:00;8.30;;;4.60;;
51957;SDS011;41120;51.820;20.804;2022-07-19T19:06:40;6.53;;;4.33;;
51957;SDS011;41120;51.820;20.804;2022-07-19T19:09:14;12.97;;;7.07;;
51957;SDS011;41120;51.820;20.804;2022-07-19T19:11:41;6.67;;;4.77;;
51957;SDS011;41120;51.820;20.804;2022-07-19T19:14:07;9.07;;;4.63;;
51957;SDS011;41120;51.820;20.804;2022-07-19T19:16:36;8.47;;;4.80;;
51957;SDS011;41120;51.820;20.804;2022-07-19T19:19:04;9.57;;;5.23;;
51957;SDS011;41120;51.820;20.804;2022-07-19T19:21:31;10.00;;;4.40;;